SPHO

Details ICAO SPHO (AYP)
Name CORONEL FAP ALFREDO MENDIVIL DUARTE
Region Peru
Timezone America/Lima (UTC-5.0)
Plans Departing 15
Arriving 8
Stats Elevation 8,917 ft / 2,718 m (AMSL)
Location -13.154820° -74.204416°
Runways 1
Magnetic Variation 3.793° W
Sunrise 2017-12-15 10:26:37 UTC / 2017-12-15 05:26:37 Local
Sunset 2017-12-15 23:20:18 UTC / 2017-12-15 18:20:18 Local
Advertisement - Login to hide

Runways

ID Width Length Bearing (true) Bearing (mag) Surface Threshold Offset Overrun Length
02 148 ft / 45 m 9,239 ft / 2,816 m 22.35° 26.14° Asphalt 0 ft / 0 m 0 ft / 0 m
20 148 ft / 45 m 9,239 ft / 2,816 m 202.35° 206.14° Asphalt 0 ft / 0 m 100 ft / 30 m

Map

Weather


0- 5 10 15 20 25 30 35+ Temperature / ° C

Clouds and Precipitation
Forecast for 2017-12-15 18:00 UTC. Updated 32 minutes ago

Ground ~20,000 ft ~40,000 ft Winds

METAR

SPHO 151500Z 00000KT 7000 BCFG BKN013 OVC070 13/12 Q1030 RMK PP020

TAF

SPHO 151115Z 1512/1612 VRB06KT 6000 OVC025 TX27/1519Z TN14/1611Z BECMG 1512/1514 9999 SCT040 BKN080 TEMPO 1518/1522 33012KT FEW040 SCT100

Frequencies

Tower 118.10 MHz AYACUCHO TWR
Warning: Do not use this data for real-world aviation or navigation. No guarantee of current accuracy is given.